This is the latest recevied weather packets stored in our database for station/object KC2G. If no packets are shown the sender has not sent any weather packets the latest 10 day(s).
| Time | Temp. | Humidity | Pressure | Rain* | Wind** | Luminosity | Snow |
|---|---|---|---|---|---|---|---|
| 1777664755 | 17.78° C | 37% | 1009.1 hPa | 0 mm | 0.45 m/s, 145° | - | - |
| 1777662954 | 17.78° C | 35% | 1009.3 hPa | 0 mm | 0.89 m/s, 170° | - | - |
| 1777660255 | 17.78° C | 37% | 1010 hPa | 0 mm | 0.89 m/s, 221° | - | - |
| 1777659355 | 17.22° C | 36% | 1010.2 hPa | 0 mm | 0.89 m/s, 205° | - | - |
| 1777659007 | 16.67° C | 39% | 1010.3 hPa | 0 mm | 0.89 m/s, 204° | - | - |
| 1777658455 | 17.22° C | 35% | 1010.2 hPa | 0 mm | 0.45 m/s, 293° | - | - |
| 1777656655 | 16.67° C | 39% | 1010.5 hPa | 0 mm | 0.89 m/s, 167° | - | - |
| 1777655754 | 16.11° C | 39% | 1010.8 hPa | 0 mm | 0.45 m/s, 181° | - | - |
| 1777654855 | 16.11° C | 40% | 1011 hPa | 0 mm | 0.89 m/s, 277° | - | - |
| 1777653955 | 16.11° C | 39% | 1011.1 hPa | 0 mm | 0.89 m/s, 237° | - | - |
| 1777653055 | 15.56° C | 40% | 1011.4 hPa | 0 mm | 0.89 m/s, 205° | - | - |
| 1777652155 | 15° C | 41% | 1011.5 hPa | 0 mm | 0.45 m/s, 118° | - | - |
| 1777651255 | 15° C | 42% | 1011.7 hPa | 0 mm | 0.89 m/s, 19° | - | - |
| 1777650355 | 15° C | 39% | 1012 hPa | 0 mm | 0.89 m/s, 282° | - | - |
| 1777649455 | 14.44° C | 43% | 1012.3 hPa | 0 mm | 0.89 m/s, 349° | - | - |
| 1777648554 | 14.44° C | 43% | 1012.5 hPa | 0 mm | 0.89 m/s, 281° | - | - |
| 1777647655 | 13.89° C | 44% | 1012.5 hPa | 0 mm | 0.45 m/s, 253° | - | - |
| 1777646754 | 13.33° C | 44% | 1012.6 hPa | 0 mm | 0.45 m/s, 289° | - | - |
| 1777645855 | 13.33° C | 48% | 1012.8 hPa | 0 mm | 0.89 m/s, 342° | - | - |
| 1777645012 | 12.78° C | 48% | 1012.8 hPa | 0 mm | 0.45 m/s, 1° | - | - |
| 1777644955 | 12.78° C | 48% | 1012.8 hPa | 0 mm | 0.45 m/s, 1° | - | - |
| 1777644055 | 12.78° C | 48% | 1012.8 hPa | 0 mm | 0.45 m/s, 308° | - | - |
| 1777643634 | 11.67° C | 55% | 1013.1 hPa | 0 mm | 0.89 m/s, 252° | - | - |
| 1777643155 | 11.67° C | 52% | 1012.9 hPa | 0 mm | 0.45 m/s, 254° | - | - |
| 1777642255 | 11.67° C | 55% | 1013.1 hPa | 0 mm | 0.89 m/s, 252° | - | - |
* Rain latest hour (hover to see other rain measurements)
** Current wind speed in m/s (hover to see current wind gust speed)